createdAt,value
2016-12-01T00:00:12.187Z,6.31
2016-12-01T00:00:38.282Z,6.24
2016-12-01T00:01:04.365Z,6.35
2016-12-01T00:01:30.455Z,6.31
2016-12-01T00:01:56.556Z,6.31
2016-12-01T00:02:22.642Z,6.31
2016-12-01T00:02:48.741Z,6.28
2016-12-01T00:03:14.825Z,6.26
2016-12-01T00:03:40.915Z,6.35
2016-12-01T00:04:07.012Z,6.33
2016-12-01T00:04:33.097Z,6.24
2016-12-01T00:04:59.188Z,6.27
2016-12-01T00:05:25.309Z,6.24
2016-12-01T00:05:51.389Z,6.24
2016-12-01T00:06:17.479Z,6.3
2016-12-01T00:06:43.575Z,6.22
2016-12-01T00:07:09.660Z,6.33
2016-12-01T00:07:35.742Z,6.24
2016-12-01T00:08:01.867Z,6.26
2016-12-01T00:08:27.960Z,6.19
2016-12-01T00:08:54.052Z,6.31
2016-12-01T00:09:20.135Z,6.28
2016-12-01T00:09:46.227Z,6.35
2016-12-01T00:10:12.322Z,6.36
2016-12-01T00:10:38.412Z,6.33
2016-12-01T00:11:04.500Z,6.39
2016-12-01T00:11:30.598Z,6.41
2016-12-01T00:11:56.689Z,6.39
2016-12-01T00:12:22.773Z,6.3
2016-12-01T00:12:48.875Z,6.38
2016-12-01T00:13:14.962Z,6.35
2016-12-01T00:13:41.055Z,6.44
2016-12-01T00:14:07.143Z,6.42
2016-12-01T00:14:33.229Z,6.39
2016-12-01T00:14:59.334Z,6.42
2016-12-01T00:15:25.425Z,6.42
2016-12-01T00:15:51.514Z,6.51
2016-12-01T00:16:17.612Z,6.45
2016-12-01T00:16:43.708Z,6.44
2016-12-01T00:17:09.793Z,6.48
2016-12-01T00:17:35.888Z,6.54
2016-12-01T00:18:01.985Z,6.48
2016-12-01T00:18:28.065Z,6.56
2016-12-01T00:18:54.160Z,6.54
2016-12-01T00:19:20.245Z,6.49
2016-12-01T00:19:46.340Z,6.54
2016-12-01T00:20:12.434Z,6.56
2016-12-01T00:20:38.521Z,6.56
2016-12-01T00:21:04.621Z,6.59
2016-12-01T00:21:30.715Z,6.56
2016-12-01T00:21:56.795Z,6.48
2016-12-01T00:22:22.889Z,6.48
2016-12-01T00:22:48.989Z,6.54
2016-12-01T00:23:15.073Z,6.52
2016-12-01T00:23:41.162Z,6.48
2016-12-01T00:24:07.258Z,6.48
2016-12-01T00:24:33.347Z,6.48
2016-12-01T00:24:59.443Z,6.42
2016-12-01T00:25:25.523Z,6.57
2016-12-01T00:25:51.620Z,6.52
2016-12-01T00:26:17.713Z,6.56
2016-12-01T00:26:43.797Z,6.54
2016-12-01T00:27:09.884Z,6.62
2016-12-01T00:27:35.981Z,6.6
2016-12-01T00:28:02.066Z,6.63
2016-12-01T00:28:28.146Z,6.62
2016-12-01T00:28:54.244Z,6.59
2016-12-01T00:29:20.334Z,6.57
2016-12-01T00:29:46.419Z,6.51
2016-12-01T00:30:12.514Z,6.48
2016-12-01T00:30:38.601Z,6.51
2016-12-01T00:31:04.701Z,6.39
2016-12-01T00:31:30.788Z,6.35
2016-12-01T00:31:56.875Z,6.31
2016-12-01T00:32:22.979Z,6.35
2016-12-01T00:32:49.067Z,6.41
2016-12-01T00:33:15.147Z,6.45
2016-12-01T00:33:41.249Z,6.41
2016-12-01T00:34:07.337Z,6.35
2016-12-01T00:34:33.424Z,6.42
2016-12-01T00:34:59.518Z,6.44
2016-12-01T00:35:25.611Z,6.46
2016-12-01T00:35:51.696Z,6.49
2016-12-01T00:36:17.786Z,6.39
2016-12-01T00:36:43.886Z,6.39
2016-12-01T00:37:09.962Z,6.41
2016-12-01T00:37:36.051Z,6.39
2016-12-01T00:38:02.149Z,6.48
2016-12-01T00:38:28.231Z,6.39
2016-12-01T00:38:54.313Z,6.52
2016-12-01T00:39:20.415Z,6.36
2016-12-01T00:39:46.501Z,6.45
2016-12-01T00:40:12.580Z,6.36
2016-12-01T00:40:38.677Z,6.41
2016-12-01T00:41:04.766Z,6.41
2016-12-01T00:41:30.859Z,6.38
2016-12-01T00:41:56.950Z,6.28
2016-12-01T00:42:23.031Z,6.38
2016-12-01T00:42:49.131Z,6.35
2016-12-01T00:43:15.223Z,6.35
2016-12-01T00:43:41.305Z,6.35
2016-12-01T00:44:07.398Z,6.36
2016-12-01T00:44:33.495Z,6.35
2016-12-01T00:44:59.578Z,6.39
2016-12-01T00:45:25.673Z,6.35
2016-12-01T00:45:51.768Z,6.33
2016-12-01T00:46:17.849Z,6.36
2016-12-01T00:46:43.944Z,6.35
2016-12-01T00:47:10.029Z,6.35
2016-12-01T00:47:36.126Z,6.35
2016-12-01T00:48:02.217Z,6.39
2016-12-01T00:48:28.303Z,6.39
2016-12-01T00:48:54.395Z,6.38
2016-12-01T00:49:20.496Z,6.33
2016-12-01T00:49:46.601Z,6.41
2016-12-01T00:50:12.693Z,6.46
2016-12-01T00:50:38.784Z,6.35
2016-12-01T00:51:04.863Z,6.45
2016-12-01T00:51:30.977Z,6.44
2016-12-01T00:51:57.070Z,6.41
2016-12-01T00:52:23.157Z,6.42
2016-12-01T00:52:49.254Z,6.42
2016-12-01T00:53:15.330Z,6.49
2016-12-01T00:53:41.422Z,6.44
2016-12-01T00:54:07.515Z,6.41
2016-12-01T00:54:33.901Z,6.35
2016-12-01T00:54:59.989Z,6.3
2016-12-01T00:55:26.087Z,6.3
2016-12-01T00:55:52.173Z,6.33
2016-12-01T00:56:18.258Z,6.22
2016-12-01T00:56:44.358Z,6.31
2016-12-01T00:57:10.446Z,6.28
2016-12-01T00:57:36.528Z,6.33
2016-12-01T00:58:02.626Z,6.38
2016-12-01T00:58:28.717Z,6.36
2016-12-01T00:58:54.817Z,6.41
2016-12-01T00:59:20.905Z,6.46
2016-12-01T00:59:46.988Z,6.41
2016-12-01T01:00:13.085Z,6.38
2016-12-01T01:00:39.199Z,6.39
2016-12-01T01:01:05.281Z,6.41
2016-12-01T01:01:31.378Z,6.39
2016-12-01T01:01:57.469Z,6.44
2016-12-01T01:02:23.554Z,6.46
2016-12-01T01:02:49.647Z,6.38
2016-12-01T01:03:15.749Z,6.39
2016-12-01T01:03:41.831Z,6.35
2016-12-01T01:04:07.920Z,6.39
2016-12-01T01:04:34.004Z,6.41
2016-12-01T01:05:00.102Z,6.42
2016-12-01T01:05:26.194Z,6.46
2016-12-01T01:05:52.277Z,6.44
2016-12-01T01:06:18.373Z,6.42
2016-12-01T01:06:44.473Z,6.52
2016-12-01T01:07:10.553Z,6.56
2016-12-01T01:07:36.644Z,6.59
2016-12-01T01:08:02.745Z,6.54
2016-12-01T01:08:28.826Z,6.56
2016-12-01T01:08:54.914Z,6.44
2016-12-01T01:09:21.003Z,6.41
2016-12-01T01:09:47.101Z,6.44
2016-12-01T01:10:13.196Z,6.45
2016-12-01T01:10:39.276Z,6.49
2016-12-01T01:11:05.371Z,6.46
2016-12-01T01:11:31.466Z,6.44
2016-12-01T01:11:57.546Z,6.59
2016-12-01T01:12:23.636Z,6.62
2016-12-01T01:12:49.733Z,6.59
2016-12-01T01:13:15.825Z,6.64
2016-12-01T01:13:41.902Z,6.63
2016-12-01T01:14:08.001Z,6.6
2016-12-01T01:14:34.084Z,6.57
2016-12-01T01:15:00.176Z,6.6
2016-12-01T01:15:26.262Z,6.57
2016-12-01T01:15:52.352Z,6.6
2016-12-01T01:16:18.450Z,6.63
2016-12-01T01:16:44.537Z,6.52
2016-12-01T01:17:10.618Z,6.57
2016-12-01T01:17:36.718Z,6.56
2016-12-01T01:18:02.809Z,6.54
2016-12-01T01:18:28.892Z,6.56
2016-12-01T01:18:54.988Z,6.6
2016-12-01T01:19:21.079Z,6.56
2016-12-01T01:19:47.166Z,6.48
2016-12-01T01:20:13.263Z,6.49
2016-12-01T01:20:39.356Z,6.52
2016-12-01T01:21:05.463Z,6.44
2016-12-01T01:21:31.559Z,6.44
2016-12-01T01:21:57.657Z,6.41
2016-12-01T01:22:23.742Z,6.41
2016-12-01T01:22:49.835Z,6.44
2016-12-01T01:23:15.931Z,6.44
2016-12-01T01:23:42.018Z,6.42
2016-12-01T01:24:08.102Z,6.45
2016-12-01T01:24:34.202Z,6.44
2016-12-01T01:25:00.596Z,6.33
2016-12-01T01:25:26.678Z,6.39
2016-12-01T01:25:52.777Z,6.49
2016-12-01T01:26:18.867Z,6.52
2016-12-01T01:26:44.963Z,6.45
2016-12-01T01:27:11.044Z,6.45
2016-12-01T01:27:37.127Z,6.52
2016-12-01T01:28:03.226Z,6.52
2016-12-01T01:28:29.320Z,6.48
2016-12-01T01:28:55.404Z,6.51
2016-12-01T01:29:21.503Z,6.48
2016-12-01T01:29:47.589Z,6.44
2016-12-01T01:30:13.676Z,6.46
2016-12-01T01:30:39.766Z,6.49
2016-12-01T01:31:05.866Z,6.42
2016-12-01T01:31:31.952Z,6.42
2016-12-01T01:31:58.039Z,6.44
2016-12-01T01:32:24.128Z,6.41
2016-12-01T01:32:50.221Z,6.41
2016-12-01T01:33:16.311Z,6.41
2016-12-01T01:33:42.392Z,6.52
2016-12-01T01:34:08.488Z,6.56
2016-12-01T01:34:34.585Z,6.52
2016-12-01T01:35:00.667Z,6.49
2016-12-01T01:35:26.755Z,6.51
2016-12-01T01:35:52.854Z,6.38
2016-12-01T01:36:18.941Z,6.48
2016-12-01T01:36:45.033Z,6.28
2016-12-01T01:37:11.124Z,6.3
2016-12-01T01:37:37.223Z,6.38
2016-12-01T01:38:03.319Z,6.36
2016-12-01T01:38:29.402Z,6.36
2016-12-01T01:38:55.494Z,6.44
2016-12-01T01:39:21.590Z,6.56
2016-12-01T01:39:47.671Z,6.48
2016-12-01T01:40:13.762Z,6.41
2016-12-01T01:40:39.859Z,6.39
2016-12-01T01:41:05.945Z,6.44
2016-12-01T01:41:32.030Z,6.44
2016-12-01T01:41:58.129Z,6.36
2016-12-01T01:42:24.220Z,6.44
2016-12-01T01:42:50.319Z,6.51
2016-12-01T01:43:16.399Z,6.52
2016-12-01T01:43:42.494Z,6.44
2016-12-01T01:44:08.586Z,6.51
2016-12-01T01:44:34.674Z,6.49
2016-12-01T01:45:00.757Z,6.45
2016-12-01T01:45:26.853Z,6.41
2016-12-01T01:45:52.945Z,6.31
2016-12-01T01:46:19.031Z,6.27
2016-12-01T01:46:45.130Z,6.36
2016-12-01T01:47:11.222Z,6.24
2016-12-01T01:47:37.309Z,6.3
2016-12-01T01:48:03.405Z,6.36
2016-12-01T01:48:29.488Z,6.39
2016-12-01T01:48:55.590Z,6.36
2016-12-01T01:49:21.679Z,6.42
2016-12-01T01:49:47.763Z,6.45
2016-12-01T01:50:13.860Z,6.45
2016-12-01T01:50:39.945Z,6.41
2016-12-01T01:51:06.028Z,6.42
2016-12-01T01:51:32.125Z,6.42
2016-12-01T01:51:58.222Z,6.45
2016-12-01T01:52:24.299Z,6.42
2016-12-01T01:52:50.395Z,6.39
2016-12-01T01:53:16.489Z,6.33
2016-12-01T01:53:42.574Z,6.41
2016-12-01T01:54:08.672Z,6.41
2016-12-01T01:54:34.754Z,6.41
2016-12-01T01:55:00.846Z,6.39
2016-12-01T01:55:27.243Z,6.3
2016-12-01T01:55:53.324Z,6.33
2016-12-01T01:56:19.415Z,6.35
2016-12-01T01:56:45.515Z,6.28
2016-12-01T01:57:11.595Z,6.31
2016-12-01T01:57:37.685Z,6.27
2016-12-01T01:58:03.785Z,6.35
2016-12-01T01:58:29.874Z,6.33
2016-12-01T01:58:55.955Z,6.39
2016-12-01T01:59:22.046Z,6.35
2016-12-01T01:59:48.138Z,6.3
2016-12-01T02:00:14.234Z,6.35
2016-12-01T02:00:40.318Z,6.33
2016-12-01T02:01:06.408Z,6.35
2016-12-01T02:01:32.503Z,6.33
2016-12-01T02:01:58.594Z,6.31
2016-12-01T02:02:24.679Z,6.26
2016-12-01T02:02:50.781Z,6.35
2016-12-01T02:03:16.871Z,6.3
2016-12-01T02:03:42.992Z,6.3
2016-12-01T02:04:09.089Z,6.28
2016-12-01T02:04:35.184Z,6.38
2016-12-01T02:05:01.269Z,6.36
2016-12-01T02:05:27.360Z,6.33
2016-12-01T02:05:53.456Z,6.38
2016-12-01T02:06:19.538Z,6.35
2016-12-01T02:06:45.629Z,6.31
2016-12-01T02:07:11.724Z,6.35
2016-12-01T02:07:37.802Z,6.44
2016-12-01T02:08:03.886Z,6.42
2016-12-01T02:08:29.986Z,6.41
2016-12-01T02:08:56.072Z,6.39
2016-12-01T02:09:22.160Z,6.36
2016-12-01T02:09:48.258Z,6.35
2016-12-01T02:10:14.351Z,6.39
2016-12-01T02:10:40.455Z,6.27
2016-12-01T02:11:06.540Z,6.36
2016-12-01T02:11:32.627Z,6.3
2016-12-01T02:11:58.724Z,6.19
2016-12-01T02:12:24.807Z,6.27
2016-12-01T02:12:50.887Z,6.24
2016-12-01T02:13:16.985Z,6.24
2016-12-01T02:13:43.072Z,6.26
2016-12-01T02:14:09.157Z,6.3
2016-12-01T02:14:35.255Z,6.33
2016-12-01T02:15:01.346Z,6.3
2016-12-01T02:15:27.433Z,6.38
2016-12-01T02:15:53.530Z,6.39
2016-12-01T02:16:19.635Z,6.3
2016-12-01T02:16:45.734Z,6.33
2016-12-01T02:17:11.821Z,6.28
2016-12-01T02:17:37.902Z,6.3
2016-12-01T02:18:04.002Z,6.33
2016-12-01T02:18:30.089Z,6.35
2016-12-01T02:18:56.171Z,6.28
2016-12-01T02:19:22.267Z,6.35
2016-12-01T02:19:48.364Z,6.36
2016-12-01T02:20:14.450Z,6.36
2016-12-01T02:20:40.541Z,6.35
2016-12-01T02:21:06.639Z,6.39
2016-12-01T02:21:32.722Z,6.36
2016-12-01T02:21:58.815Z,6.3
2016-12-01T02:22:24.895Z,6.26
2016-12-01T02:22:50.992Z,6.22
2016-12-01T02:23:17.095Z,6.28
2016-12-01T02:23:43.175Z,6.27
2016-12-01T02:24:09.264Z,6.2
2016-12-01T02:24:35.363Z,6.28
2016-12-01T02:25:01.440Z,6.3
2016-12-01T02:25:27.532Z,6.3
2016-12-01T02:25:53.627Z,6.35
2016-12-01T02:26:19.716Z,6.31
2016-12-01T02:26:45.796Z,6.24
2016-12-01T02:27:11.888Z,6.35
2016-12-01T02:27:37.977Z,6.27
2016-12-01T02:28:04.080Z,6.38
2016-12-01T02:28:30.160Z,6.38
2016-12-01T02:28:56.251Z,6.38
2016-12-01T02:29:22.349Z,6.36
2016-12-01T02:29:48.436Z,6.38
2016-12-01T02:30:14.543Z,6.3
2016-12-01T02:30:40.639Z,6.31
2016-12-01T02:31:06.731Z,6.45
2016-12-01T02:31:32.818Z,6.35
2016-12-01T02:31:58.915Z,6.31
2016-12-01T02:32:25.006Z,6.33
2016-12-01T02:32:51.115Z,6.3
2016-12-01T02:33:17.191Z,6.45
2016-12-01T02:33:43.263Z,6.31
2016-12-01T02:34:09.368Z,6.39
2016-12-01T02:34:35.457Z,6.31
2016-12-01T02:35:01.540Z,6.33
2016-12-01T02:35:27.636Z,6.36
2016-12-01T02:35:53.729Z,6.31
2016-12-01T02:36:19.838Z,6.33
2016-12-01T02:36:45.932Z,6.26
2016-12-01T02:37:12.024Z,6.3
2016-12-01T02:37:38.102Z,6.38
2016-12-01T02:38:04.196Z,6.36
2016-12-01T02:38:30.282Z,6.39
2016-12-01T02:38:56.381Z,6.35
2016-12-01T02:39:22.469Z,6.35
2016-12-01T02:39:48.550Z,6.28
2016-12-01T02:40:14.673Z,6.24
2016-12-01T02:40:40.872Z,6.35
2016-12-01T02:41:06.949Z,6.27
2016-12-01T02:41:33.044Z,6.36
2016-12-01T02:41:59.146Z,6.33
2016-12-01T02:42:25.230Z,6.27
2016-12-01T02:42:51.348Z,6.3
2016-12-01T02:43:17.445Z,6.39
2016-12-01T02:43:43.531Z,6.31
2016-12-01T02:44:09.631Z,6.31
2016-12-01T02:44:35.706Z,6.35
2016-12-01T02:45:01.798Z,6.39
2016-12-01T02:45:27.896Z,6.39
2016-12-01T02:45:53.982Z,6.28
2016-12-01T02:46:20.065Z,6.27
2016-12-01T02:46:46.163Z,6.3
2016-12-01T02:47:12.248Z,6.27
2016-12-01T02:47:38.349Z,6.28
2016-12-01T02:48:04.451Z,6.35
2016-12-01T02:48:30.548Z,6.35
2016-12-01T02:48:56.630Z,6.45
2016-12-01T02:49:22.726Z,6.38
2016-12-01T02:49:48.818Z,6.33
2016-12-01T02:50:14.897Z,6.38
2016-12-01T02:50:40.993Z,6.38
2016-12-01T02:51:07.115Z,6.39
2016-12-01T02:51:33.200Z,6.38
2016-12-01T02:51:59.296Z,6.31
2016-12-01T02:52:25.390Z,6.3
2016-12-01T02:52:51.472Z,6.3
2016-12-01T02:53:17.561Z,6.3
2016-12-01T02:53:43.689Z,6.27
2016-12-01T02:54:09.777Z,6.26
2016-12-01T02:54:35.866Z,6.26
2016-12-01T02:55:01.957Z,6.19
2016-12-01T02:55:28.053Z,6.26
2016-12-01T02:55:54.151Z,6.27
2016-12-01T02:56:20.236Z,6.19
2016-12-01T02:56:46.323Z,6.24
2016-12-01T02:57:12.420Z,6.22
2016-12-01T02:57:38.508Z,6.24
2016-12-01T02:58:04.593Z,6.35
2016-12-01T02:58:30.693Z,6.3
2016-12-01T02:58:56.785Z,6.28
2016-12-01T02:59:22.870Z,6.33
2016-12-01T02:59:48.964Z,6.36
2016-12-01T03:00:15.054Z,6.42
2016-12-01T03:00:41.146Z,6.42
2016-12-01T03:01:07.228Z,6.41
2016-12-01T03:01:33.312Z,6.41
2016-12-01T03:01:59.417Z,6.35
2016-12-01T03:02:25.525Z,6.33
2016-12-01T03:02:51.610Z,6.31
2016-12-01T03:03:17.709Z,6.3
2016-12-01T03:03:43.799Z,6.3
2016-12-01T03:04:09.882Z,6.28
2016-12-01T03:04:35.981Z,6.28
2016-12-01T03:05:02.076Z,6.27
2016-12-01T03:05:28.182Z,6.3
2016-12-01T03:05:54.277Z,6.36
2016-12-01T03:06:20.361Z,6.31
2016-12-01T03:06:46.458Z,6.24
2016-12-01T03:07:12.546Z,6.22
2016-12-01T03:07:38.629Z,6.2
2016-12-01T03:08:04.720Z,6.26
2016-12-01T03:08:30.820Z,6.35
2016-12-01T03:08:56.906Z,6.27
2016-12-01T03:09:22.997Z,6.27
2016-12-01T03:09:49.095Z,6.36
2016-12-01T03:10:15.179Z,6.33
2016-12-01T03:10:41.270Z,6.41
2016-12-01T03:11:07.366Z,6.31
2016-12-01T03:11:33.455Z,6.41
2016-12-01T03:11:59.553Z,6.45
2016-12-01T03:12:25.634Z,6.44
2016-12-01T03:12:51.727Z,6.41
2016-12-01T03:13:17.822Z,6.42
2016-12-01T03:13:43.905Z,6.44
2016-12-01T03:14:09.994Z,6.41
2016-12-01T03:14:36.091Z,6.39
2016-12-01T03:15:02.176Z,6.35
2016-12-01T03:15:28.263Z,6.26
2016-12-01T03:15:54.361Z,6.27
2016-12-01T03:16:20.450Z,6.35
2016-12-01T03:16:46.531Z,6.31
2016-12-01T03:17:12.629Z,6.22
2016-12-01T03:17:38.716Z,6.26
2016-12-01T03:18:04.812Z,6.28
2016-12-01T03:18:30.897Z,6.36
2016-12-01T03:18:56.984Z,6.33
2016-12-01T03:19:23.085Z,6.36
2016-12-01T03:19:49.174Z,6.41
2016-12-01T03:20:15.252Z,6.46
2016-12-01T03:20:41.351Z,6.31
2016-12-01T03:21:07.440Z,6.36
2016-12-01T03:21:33.525Z,6.33
2016-12-01T03:21:59.623Z,6.45
2016-12-01T03:22:25.720Z,6.45
2016-12-01T03:22:51.809Z,6.33
2016-12-01T03:23:17.899Z,6.33
2016-12-01T03:23:43.985Z,6.42
2016-12-01T03:24:10.084Z,6.36
2016-12-01T03:24:36.178Z,6.33
2016-12-01T03:25:02.255Z,6.44
2016-12-01T03:25:28.349Z,6.33
2016-12-01T03:25:54.746Z,6.35
2016-12-01T03:26:20.823Z,6.36
2016-12-01T03:26:46.915Z,6.36
2016-12-01T03:27:13.013Z,6.3
2016-12-01T03:27:39.094Z,6.3
2016-12-01T03:28:05.182Z,6.36
2016-12-01T03:28:31.298Z,6.31
2016-12-01T03:28:57.421Z,6.35
2016-12-01T03:29:23.522Z,6.36
2016-12-01T03:29:49.599Z,6.28
2016-12-01T03:30:15.694Z,6.38
2016-12-01T03:30:41.791Z,6.42
2016-12-01T03:31:07.873Z,6.38
2016-12-01T03:31:33.963Z,6.46
2016-12-01T03:32:00.056Z,6.44
2016-12-01T03:32:26.146Z,6.38
2016-12-01T03:32:52.230Z,6.38
2016-12-01T03:33:18.330Z,6.42
2016-12-01T03:33:44.420Z,6.38
2016-12-01T03:34:10.508Z,6.35
2016-12-01T03:34:36.602Z,6.33
2016-12-01T03:35:02.689Z,6.28
2016-12-01T03:35:28.773Z,6.45
2016-12-01T03:35:54.868Z,6.42
2016-12-01T03:36:20.965Z,6.44
2016-12-01T03:36:47.043Z,6.42
2016-12-01T03:37:13.138Z,6.41
2016-12-01T03:37:39.222Z,6.45
2016-12-01T03:38:05.319Z,6.45
2016-12-01T03:38:31.409Z,6.48
2016-12-01T03:38:57.492Z,6.42
2016-12-01T03:39:23.586Z,6.52
2016-12-01T03:39:49.670Z,6.46
2016-12-01T03:40:15.771Z,6.44
2016-12-01T03:40:41.858Z,6.42
2016-12-01T03:41:08.042Z,6.38
2016-12-01T03:41:34.139Z,6.33
2016-12-01T03:42:00.229Z,6.45
2016-12-01T03:42:26.311Z,6.45
2016-12-01T03:42:52.403Z,6.41
2016-12-01T03:43:18.502Z,6.36
2016-12-01T03:43:44.584Z,6.45
2016-12-01T03:44:10.675Z,6.39
2016-12-01T03:44:36.803Z,6.39
2016-12-01T03:45:02.884Z,6.27
2016-12-01T03:45:28.977Z,6.27
2016-12-01T03:45:55.060Z,6.31
2016-12-01T03:46:21.176Z,6.3
2016-12-01T03:46:47.272Z,6.28
2016-12-01T03:47:13.349Z,6.3
2016-12-01T03:47:39.445Z,6.3
2016-12-01T03:48:05.542Z,6.39
2016-12-01T03:48:31.625Z,6.46
2016-12-01T03:48:57.715Z,6.46
2016-12-01T03:49:23.810Z,6.39
2016-12-01T03:49:49.900Z,6.44
2016-12-01T03:50:15.981Z,6.39
2016-12-01T03:50:42.078Z,6.49
2016-12-01T03:51:08.169Z,6.56
2016-12-01T03:51:34.266Z,6.45
2016-12-01T03:52:00.346Z,6.44
2016-12-01T03:52:26.433Z,6.52
2016-12-01T03:52:52.528Z,6.48
2016-12-01T03:53:18.615Z,6.42
2016-12-01T03:53:44.695Z,6.42
2016-12-01T03:54:10.797Z,6.48
2016-12-01T03:54:36.887Z,6.46
2016-12-01T03:55:02.967Z,6.51
2016-12-01T03:55:29.066Z,6.42
2016-12-01T03:55:55.156Z,6.41
2016-12-01T03:56:21.588Z,6.41
2016-12-01T03:56:47.685Z,6.46
2016-12-01T03:57:13.779Z,6.45
2016-12-01T03:57:39.862Z,6.51
2016-12-01T03:58:05.957Z,6.48
2016-12-01T03:58:32.050Z,6.56
2016-12-01T03:58:58.134Z,6.52
2016-12-01T03:59:24.216Z,6.52
2016-12-01T03:59:50.309Z,6.51
2016-12-01T04:00:16.396Z,6.46
2016-12-01T04:00:42.479Z,6.49
2016-12-01T04:01:08.581Z,6.52
2016-12-01T04:01:34.673Z,6.49
2016-12-01T04:02:00.798Z,6.54
2016-12-01T04:02:26.884Z,6.56
2016-12-01T04:02:52.973Z,6.6
2016-12-01T04:03:19.070Z,6.59
2016-12-01T04:03:45.155Z,6.57
2016-12-01T04:04:11.235Z,6.6
2016-12-01T04:04:37.338Z,6.6
2016-12-01T04:05:03.425Z,6.56
2016-12-01T04:05:29.508Z,6.57
2016-12-01T04:05:55.603Z,6.62
2016-12-01T04:06:21.697Z,6.6
2016-12-01T04:06:47.781Z,6.62
2016-12-01T04:07:13.876Z,6.57
2016-12-01T04:07:39.956Z,6.63
2016-12-01T04:08:06.057Z,6.64
2016-12-01T04:08:32.145Z,6.63
2016-12-01T04:08:58.230Z,6.57
2016-12-01T04:09:24.328Z,6.57
2016-12-01T04:09:50.424Z,6.6
2016-12-01T04:10:16.509Z,6.56
2016-12-01T04:10:42.600Z,6.56
2016-12-01T04:11:08.696Z,6.6
2016-12-01T04:11:34.877Z,6.6
2016-12-01T04:12:00.969Z,6.6
2016-12-01T04:12:27.066Z,6.62
2016-12-01T04:12:53.145Z,6.62
2016-12-01T04:13:19.241Z,6.6
2016-12-01T04:13:45.322Z,6.57
2016-12-01T04:14:11.436Z,6.62
2016-12-01T04:14:37.537Z,6.62
2016-12-01T04:15:03.619Z,6.57
2016-12-01T04:15:29.713Z,6.48
2016-12-01T04:15:55.813Z,6.52
2016-12-01T04:16:21.894Z,6.45
2016-12-01T04:16:47.981Z,6.51
2016-12-01T04:17:14.071Z,6.57
2016-12-01T04:17:40.159Z,6.57
2016-12-01T04:18:06.243Z,6.59
2016-12-01T04:18:32.342Z,6.6
2016-12-01T04:18:58.431Z,6.6
2016-12-01T04:19:24.516Z,6.56
2016-12-01T04:19:50.615Z,6.62
2016-12-01T04:20:16.711Z,6.6
2016-12-01T04:20:42.791Z,6.59
2016-12-01T04:21:08.885Z,6.57
2016-12-01T04:21:35.011Z,6.63
2016-12-01T04:22:01.092Z,6.6
2016-12-01T04:22:27.179Z,6.64
2016-12-01T04:22:53.274Z,6.56
2016-12-01T04:23:19.358Z,6.67
2016-12-01T04:23:45.442Z,6.63
2016-12-01T04:24:11.532Z,6.7
2016-12-01T04:24:37.626Z,6.75
2016-12-01T04:25:03.722Z,6.59
2016-12-01T04:25:29.796Z,6.66
2016-12-01T04:25:55.887Z,6.6
2016-12-01T04:26:21.983Z,6.6
2016-12-01T04:26:48.366Z,6.57
2016-12-01T04:27:14.456Z,6.57
2016-12-01T04:27:40.551Z,6.74
2016-12-01T04:28:06.639Z,6.57
2016-12-01T04:28:32.725Z,6.59
2016-12-01T04:28:58.825Z,6.75
2016-12-01T04:29:24.915Z,6.6
2016-12-01T04:29:51.011Z,6.6
2016-12-01T04:30:17.094Z,6.63
2016-12-01T04:30:43.188Z,6.69
2016-12-01T04:31:09.287Z,6.66
2016-12-01T04:31:35.375Z,6.67
2016-12-01T04:32:01.457Z,6.62
2016-12-01T04:32:27.559Z,6.7
2016-12-01T04:32:53.647Z,6.56
2016-12-01T04:33:19.733Z,6.59
2016-12-01T04:33:45.830Z,6.75
2016-12-01T04:34:11.922Z,6.67
2016-12-01T04:34:38.008Z,6.74
2016-12-01T04:35:04.101Z,6.69
2016-12-01T04:35:30.182Z,6.7
2016-12-01T04:35:56.277Z,6.69
2016-12-01T04:36:22.365Z,6.62
2016-12-01T04:36:48.444Z,6.69
2016-12-01T04:37:14.543Z,6.7
2016-12-01T04:37:40.657Z,6.7
2016-12-01T04:38:06.737Z,6.69
2016-12-01T04:38:32.837Z,6.62
2016-12-01T04:38:58.928Z,6.69
2016-12-01T04:39:25.009Z,6.69
2016-12-01T04:39:51.103Z,6.56
2016-12-01T04:40:17.203Z,6.54
2016-12-01T04:40:43.286Z,6.74
2016-12-01T04:41:09.379Z,6.62
2016-12-01T04:41:35.559Z,6.64
2016-12-01T04:42:01.655Z,6.62
2016-12-01T04:42:27.748Z,6.63
2016-12-01T04:42:53.827Z,6.63
2016-12-01T04:43:19.918Z,6.54
2016-12-01T04:43:46.018Z,6.57
2016-12-01T04:44:12.098Z,6.67
2016-12-01T04:44:38.182Z,6.57
2016-12-01T04:45:04.280Z,6.67
2016-12-01T04:45:30.364Z,6.6
2016-12-01T04:45:56.445Z,6.69
2016-12-01T04:46:22.530Z,6.72
2016-12-01T04:46:48.623Z,6.62
2016-12-01T04:47:14.718Z,6.59
2016-12-01T04:47:40.795Z,6.62
2016-12-01T04:48:06.883Z,6.66
2016-12-01T04:48:32.982Z,6.74
2016-12-01T04:48:59.071Z,6.56
2016-12-01T04:49:25.152Z,6.63
2016-12-01T04:49:51.255Z,6.72
2016-12-01T04:50:17.342Z,6.59
2016-12-01T04:50:43.422Z,6.56
2016-12-01T04:51:09.519Z,6.64
2016-12-01T04:51:35.609Z,6.7
2016-12-01T04:52:01.703Z,6.66
2016-12-01T04:52:27.781Z,6.67
2016-12-01T04:52:53.862Z,6.72
2016-12-01T04:53:19.959Z,6.74
2016-12-01T04:53:46.042Z,6.7
2016-12-01T04:54:12.128Z,6.57
2016-12-01T04:54:38.221Z,6.59
2016-12-01T04:55:04.313Z,6.56
2016-12-01T04:55:30.400Z,6.52
2016-12-01T04:55:56.493Z,6.56
2016-12-01T04:56:22.590Z,6.59
2016-12-01T04:56:48.674Z,6.57
2016-12-01T04:57:14.770Z,6.57
2016-12-01T04:57:40.860Z,6.63
2016-12-01T04:58:06.962Z,6.56
2016-12-01T04:58:33.049Z,6.59
2016-12-01T04:58:59.131Z,6.62
2016-12-01T04:59:25.223Z,6.59
2016-12-01T04:59:51.315Z,6.54
2016-12-01T05:00:17.414Z,6.57
2016-12-01T05:00:43.507Z,6.52
2016-12-01T05:01:09.605Z,6.54
2016-12-01T05:01:35.686Z,6.45
2016-12-01T05:02:01.779Z,6.6
2016-12-01T05:02:27.873Z,6.59
2016-12-01T05:02:53.957Z,6.64
2016-12-01T05:03:20.037Z,6.56
2016-12-01T05:03:46.137Z,6.59
2016-12-01T05:04:12.232Z,6.51
2016-12-01T05:04:38.313Z,6.56
2016-12-01T05:05:04.406Z,6.69
2016-12-01T05:05:30.497Z,6.62
2016-12-01T05:05:56.581Z,6.66
2016-12-01T05:06:22.679Z,6.6
2016-12-01T05:06:48.778Z,6.59
2016-12-01T05:07:14.856Z,6.56
2016-12-01T05:07:40.947Z,6.72
2016-12-01T05:08:07.044Z,6.72
2016-12-01T05:08:33.128Z,6.59
2016-12-01T05:08:59.227Z,6.78
2016-12-01T05:09:25.306Z,6.7
2016-12-01T05:09:51.406Z,6.57
2016-12-01T05:10:17.504Z,6.62
2016-12-01T05:10:43.582Z,6.52
2016-12-01T05:11:09.677Z,6.62
2016-12-01T05:11:35.778Z,6.6
2016-12-01T05:12:01.958Z,6.6
2016-12-01T05:12:28.045Z,6.59
2016-12-01T05:12:54.142Z,6.6
2016-12-01T05:13:20.229Z,6.6
2016-12-01T05:13:46.308Z,6.56
2016-12-01T05:14:12.403Z,6.59
2016-12-01T05:14:38.493Z,6.56
2016-12-01T05:15:04.590Z,6.62
2016-12-01T05:15:30.673Z,6.56
2016-12-01T05:15:56.763Z,6.62
2016-12-01T05:16:22.863Z,6.6
2016-12-01T05:16:48.947Z,6.57
2016-12-01T05:17:15.034Z,6.51
2016-12-01T05:17:41.137Z,6.56
2016-12-01T05:18:07.226Z,6.54
2016-12-01T05:18:33.305Z,6.52
2016-12-01T05:18:59.405Z,6.56
2016-12-01T05:19:25.498Z,6.64
2016-12-01T05:19:51.589Z,6.64
2016-12-01T05:20:17.672Z,6.69
2016-12-01T05:20:43.755Z,6.62
2016-12-01T05:21:09.852Z,6.7
2016-12-01T05:21:35.966Z,6.67
2016-12-01T05:22:02.052Z,6.64
2016-12-01T05:22:28.149Z,6.63
2016-12-01T05:22:54.240Z,6.59
2016-12-01T05:23:20.321Z,6.6
2016-12-01T05:23:46.414Z,6.67
2016-12-01T05:24:12.510Z,6.64
2016-12-01T05:24:38.589Z,6.75
2016-12-01T05:25:04.680Z,6.7
2016-12-01T05:25:30.764Z,6.67
2016-12-01T05:25:56.860Z,6.62
2016-12-01T05:26:22.948Z,6.64
2016-12-01T05:26:49.027Z,6.6
2016-12-01T05:27:15.450Z,6.74
2016-12-01T05:27:41.540Z,6.64
2016-12-01T05:28:07.620Z,6.6
2016-12-01T05:28:33.713Z,6.66
2016-12-01T05:28:59.810Z,6.62
2016-12-01T05:29:25.897Z,6.63
2016-12-01T05:29:51.983Z,6.6
2016-12-01T05:30:18.083Z,6.6
2016-12-01T05:30:44.170Z,6.64
2016-12-01T05:31:10.292Z,6.7
2016-12-01T05:31:36.365Z,6.75
2016-12-01T05:32:02.458Z,6.75
2016-12-01T05:32:28.556Z,6.6
2016-12-01T05:32:54.635Z,6.59
2016-12-01T05:33:20.728Z,6.62
2016-12-01T05:33:46.826Z,6.59
2016-12-01T05:34:12.911Z,6.6
2016-12-01T05:34:38.995Z,6.62
2016-12-01T05:35:05.097Z,6.7
2016-12-01T05:35:31.186Z,6.51
2016-12-01T05:35:57.271Z,6.64
2016-12-01T05:36:23.363Z,6.56
2016-12-01T05:36:49.448Z,6.62
2016-12-01T05:37:15.549Z,6.7
2016-12-01T05:37:41.636Z,6.75
2016-12-01T05:38:07.717Z,6.75
2016-12-01T05:38:33.816Z,6.77
2016-12-01T05:38:59.908Z,6.79
2016-12-01T05:39:25.991Z,6.75
2016-12-01T05:39:52.089Z,6.78
2016-12-01T05:40:18.183Z,6.72
2016-12-01T05:40:44.265Z,6.75
2016-12-01T05:41:10.380Z,6.77
2016-12-01T05:41:36.475Z,6.77
2016-12-01T05:42:02.566Z,6.72
2016-12-01T05:42:28.757Z,6.72
2016-12-01T05:42:54.838Z,6.69
2016-12-01T05:43:20.932Z,6.75
2016-12-01T05:43:47.024Z,6.78
2016-12-01T05:44:13.105Z,6.82
2016-12-01T05:44:39.199Z,6.77
2016-12-01T05:45:05.299Z,6.75
2016-12-01T05:45:31.380Z,6.87
2016-12-01T05:45:57.473Z,6.77
2016-12-01T05:46:23.570Z,6.79
2016-12-01T05:46:49.653Z,6.82
2016-12-01T05:47:15.744Z,6.84
2016-12-01T05:47:41.842Z,6.84
2016-12-01T05:48:07.927Z,6.77
2016-12-01T05:48:34.012Z,6.78